createdAt,value
2023-05-21T00:01:50.050Z,20.22
2023-05-21T00:04:17.667Z,20.40
2023-05-21T00:06:44.465Z,20.27
2023-05-21T00:09:13.909Z,20.23
2023-05-21T00:11:40.826Z,20.28
2023-05-21T00:14:10.619Z,20.41
2023-05-21T00:16:37.495Z,20.53
2023-05-21T00:19:04.356Z,20.48
2023-05-21T00:21:31.689Z,20.44
2023-05-21T00:23:59.536Z,20.26
2023-05-21T00:26:26.446Z,20.02
2023-05-21T00:28:56.934Z,20.26
2023-05-21T00:31:26.765Z,20.30
2023-05-21T00:33:53.616Z,19.64
2023-05-21T00:36:23.859Z,19.73
2023-05-21T00:38:51.872Z,19.39
2023-05-21T00:41:21.691Z,19.27
2023-05-21T00:43:48.620Z,19.31
2023-05-21T00:46:20.975Z,19.04
2023-05-21T00:48:51.865Z,19.58
2023-05-21T00:51:21.833Z,19.49
2023-05-21T00:53:51.672Z,19.75
2023-05-21T00:56:22.737Z,19.66
2023-05-21T00:58:52.036Z,19.57
2023-05-21T01:01:21.344Z,19.51
2023-05-21T01:03:48.832Z,19.70
2023-05-21T01:06:16.112Z,19.37
2023-05-21T01:08:44.127Z,19.46
2023-05-21T01:11:15.087Z,19.62
2023-05-21T01:13:42.302Z,19.58
2023-05-21T01:16:09.375Z,19.81
2023-05-21T01:18:38.129Z,19.71
2023-05-21T01:21:07.468Z,19.61
2023-05-21T01:23:40.205Z,19.52
2023-05-21T01:26:07.429Z,19.57
2023-05-21T01:28:34.847Z,19.48
2023-05-21T01:31:08.448Z,19.63
2023-05-21T01:33:41.969Z,19.65
2023-05-21T01:36:26.337Z,19.76
2023-05-21T01:39:04.380Z,19.43
2023-05-21T01:41:35.433Z,19.63
2023-05-21T01:44:03.173Z,19.55
2023-05-21T01:46:31.542Z,19.74
2023-05-21T01:49:02.652Z,19.79
2023-05-21T01:51:33.273Z,19.74
2023-05-21T01:54:00.295Z,19.65
2023-05-21T01:56:32.365Z,19.59
2023-05-21T01:59:00.165Z,19.63
2023-05-21T02:01:30.434Z,19.41
2023-05-21T02:04:00.965Z,19.52
2023-05-21T02:06:29.540Z,19.38
2023-05-21T02:08:56.619Z,19.52
2023-05-21T02:11:23.770Z,19.29
2023-05-21T02:13:54.539Z,19.23
2023-05-21T02:16:22.604Z,19.15
2023-05-21T02:18:52.324Z,19.12
2023-05-21T02:21:20.752Z,19.23
2023-05-21T02:23:50.692Z,18.96
2023-05-21T02:26:17.935Z,18.91
2023-05-21T02:28:44.759Z,18.93
2023-05-21T02:31:12.569Z,19.12
2023-05-21T02:33:41.864Z,19.25
2023-05-21T02:36:13.385Z,19.07
2023-05-21T02:38:43.505Z,18.90
2023-05-21T02:41:11.590Z,19.05
2023-05-21T02:43:38.561Z,19.07
2023-05-21T02:46:06.230Z,19.03
2023-05-21T02:48:33.157Z,18.84
2023-05-21T02:50:59.959Z,18.64
2023-05-21T02:53:26.829Z,18.87
2023-05-21T02:55:53.709Z,18.91
2023-05-21T02:58:23.448Z,19.05
2023-05-21T03:00:50.561Z,19.00
2023-05-21T03:03:18.049Z,18.99
2023-05-21T03:05:45.884Z,18.81
2023-05-21T03:08:12.677Z,18.43
2023-05-21T03:10:39.946Z,18.05
2023-05-21T03:13:09.506Z,18.57
2023-05-21T03:15:38.892Z,18.60
2023-05-21T03:18:06.909Z,18.71
2023-05-21T03:20:33.808Z,18.39
2023-05-21T03:23:04.301Z,18.44
2023-05-21T03:25:31.259Z,18.44
2023-05-21T03:27:58.163Z,18.67
2023-05-21T03:30:42.028Z,18.25
2023-05-21T03:33:41.382Z,18.50
2023-05-21T03:36:19.981Z,18.27
2023-05-21T03:38:47.015Z,18.34
2023-05-21T03:41:13.828Z,18.39
2023-05-21T03:43:43.529Z,18.48
2023-05-21T03:46:13.810Z,18.47
2023-05-21T03:48:49.696Z,18.50
2023-05-21T03:51:20.650Z,18.42
2023-05-21T03:53:47.554Z,18.63
2023-05-21T03:56:14.548Z,18.51
2023-05-21T03:58:42.771Z,18.50
2023-05-21T04:01:10.751Z,18.10
2023-05-21T04:03:40.018Z,18.22
2023-05-21T04:06:10.360Z,18.05
2023-05-21T04:08:39.738Z,17.92
2023-05-21T04:11:06.553Z,18.25
2023-05-21T04:13:33.562Z,17.95
2023-05-21T04:16:00.700Z,18.08
2023-05-21T04:18:27.664Z,18.24
2023-05-21T04:20:54.625Z,18.04
2023-05-21T04:23:23.798Z,18.13
2023-05-21T04:25:51.999Z,18.18
2023-05-21T04:28:20.290Z,18.62
2023-05-21T04:30:48.340Z,18.70
2023-05-21T04:33:18.444Z,18.72
2023-05-21T04:35:47.422Z,18.81
2023-05-21T04:38:19.797Z,18.84
2023-05-21T04:40:52.618Z,18.56
2023-05-21T04:43:25.871Z,18.60
2023-05-21T04:45:55.064Z,18.42
2023-05-21T04:48:27.169Z,18.70
2023-05-21T04:50:54.846Z,18.59
2023-05-21T04:53:23.406Z,18.83
2023-05-21T04:55:50.579Z,18.83
2023-05-21T04:58:19.151Z,18.48
2023-05-21T05:00:47.149Z,18.64
2023-05-21T05:03:15.665Z,18.92
2023-05-21T05:05:44.069Z,18.98
2023-05-21T05:08:11.413Z,18.98
2023-05-21T05:10:41.624Z,18.84
2023-05-21T05:13:08.872Z,18.92
2023-05-21T05:15:36.137Z,19.04
2023-05-21T05:18:03.508Z,19.05
2023-05-21T05:20:30.539Z,18.81
2023-05-21T05:22:57.394Z,18.88
2023-05-21T05:25:24.265Z,18.79
2023-05-21T05:27:51.082Z,18.89
2023-05-21T05:30:17.998Z,19.00
2023-05-21T05:32:45.793Z,19.07
2023-05-21T05:35:12.910Z,19.28
2023-05-21T05:37:39.660Z,19.09
2023-05-21T05:40:08.119Z,19.38
2023-05-21T05:42:35.078Z,19.30
2023-05-21T05:45:10.854Z,19.54
2023-05-21T05:47:37.817Z,19.55
2023-05-21T05:50:04.941Z,19.43
2023-05-21T05:52:31.876Z,19.35
2023-05-21T05:54:59.194Z,19.26
2023-05-21T05:57:26.014Z,19.37
2023-05-21T05:59:57.855Z,19.50
2023-05-21T06:02:24.884Z,19.42
2023-05-21T06:04:51.954Z,19.23
2023-05-21T06:07:18.898Z,19.38
2023-05-21T06:09:45.732Z,19.14
2023-05-21T06:12:15.989Z,18.95
2023-05-21T06:14:44.955Z,18.95
2023-05-21T06:17:12.541Z,19.10
2023-05-21T06:19:39.828Z,19.15
2023-05-21T06:22:06.871Z,19.07
2023-05-21T06:24:33.641Z,18.98
2023-05-21T06:27:00.943Z,19.12
2023-05-21T06:29:28.022Z,19.22
2023-05-21T06:31:55.331Z,19.36
2023-05-21T06:34:22.259Z,19.37
2023-05-21T06:36:49.094Z,19.51
2023-05-21T06:39:16.335Z,19.62
2023-05-21T06:41:43.200Z,19.55
2023-05-21T06:44:45.560Z,19.35
2023-05-21T06:47:21.020Z,19.29
2023-05-21T06:49:47.936Z,19.45
2023-05-21T06:52:14.892Z,19.45
2023-05-21T06:54:42.521Z,19.54
2023-05-21T06:57:09.341Z,19.85
2023-05-21T06:59:36.146Z,19.58
2023-05-21T07:02:04.747Z,19.49
2023-05-21T07:04:32.503Z,19.83
2023-05-21T07:07:00.820Z,19.75
2023-05-21T07:09:27.913Z,19.85
2023-05-21T07:11:54.666Z,19.75
2023-05-21T07:14:21.962Z,20.13
2023-05-21T07:16:51.718Z,20.10
2023-05-21T07:19:19.532Z,20.39
2023-05-21T07:21:46.551Z,20.96
2023-05-21T07:24:13.331Z,21.45
2023-05-21T07:26:41.194Z,21.34
2023-05-21T07:29:08.503Z,21.09
2023-05-21T07:31:37.319Z,21.82
2023-05-21T07:34:10.689Z,22.02
2023-05-21T07:36:40.003Z,22.37
2023-05-21T07:39:07.084Z,21.58
2023-05-21T07:41:34.423Z,22.14
2023-05-21T07:44:05.696Z,22.16
2023-05-21T07:46:36.916Z,22.92
2023-05-21T07:49:03.969Z,22.91
2023-05-21T07:51:31.478Z,23.24
2023-05-21T07:53:58.587Z,23.21
2023-05-21T07:56:32.530Z,23.20
2023-05-21T07:58:59.984Z,23.01
2023-05-21T08:01:29.584Z,23.15
2023-05-21T08:03:57.369Z,23.44
2023-05-21T08:06:24.457Z,23.60
2023-05-21T08:08:51.401Z,23.57
2023-05-21T08:11:18.476Z,23.52
2023-05-21T08:13:46.143Z,23.67
2023-05-21T08:16:13.505Z,23.65
2023-05-21T08:18:41.470Z,23.56
2023-05-21T08:21:08.574Z,23.30
2023-05-21T08:23:35.921Z,23.43
2023-05-21T08:26:03.496Z,23.07
2023-05-21T08:28:32.571Z,23.42
2023-05-21T08:31:01.878Z,23.92
2023-05-21T08:33:30.656Z,23.96
2023-05-21T08:35:58.162Z,23.79
2023-05-21T08:38:30.400Z,23.99
2023-05-21T08:41:24.592Z,23.94
2023-05-21T08:43:58.050Z,23.64
2023-05-21T08:46:32.655Z,23.67
2023-05-21T08:49:01.616Z,23.86
2023-05-21T08:51:30.166Z,23.99
2023-05-21T08:53:57.713Z,24.34
2023-05-21T08:56:26.149Z,23.93
2023-05-21T08:58:55.936Z,23.98
2023-05-21T09:01:27.017Z,24.66
2023-05-21T09:04:21.183Z,24.84
2023-05-21T09:06:54.865Z,24.26
2023-05-21T09:10:03.408Z,24.80
2023-05-21T09:12:30.667Z,24.78
2023-05-21T09:15:00.287Z,24.84
2023-05-21T09:17:32.114Z,25.04
2023-05-21T09:20:15.286Z,24.90
2023-05-21T09:22:50.086Z,24.82
2023-05-21T09:25:20.054Z,24.77
2023-05-21T09:27:47.066Z,24.58
2023-05-21T09:30:15.701Z,24.72
2023-05-21T09:32:43.670Z,24.70
2023-05-21T09:35:14.684Z,24.93
2023-05-21T09:37:44.095Z,24.47
2023-05-21T09:40:15.942Z,24.68
2023-05-21T09:42:54.254Z,24.38
2023-05-21T09:45:24.108Z,24.81
2023-05-21T09:47:53.949Z,24.73
2023-05-21T09:50:26.973Z,25.42
2023-05-21T09:52:55.872Z,25.20
2023-05-21T09:55:23.320Z,25.26
2023-05-21T09:57:51.508Z,25.15
2023-05-21T10:00:20.315Z,24.98
2023-05-21T10:02:48.462Z,24.74
2023-05-21T10:05:16.652Z,25.21
2023-05-21T10:07:51.653Z,25.26
2023-05-21T10:10:22.925Z,25.62
2023-05-21T10:12:55.539Z,25.42
2023-05-21T10:15:24.157Z,25.17
2023-05-21T10:17:52.490Z,25.61
2023-05-21T10:20:20.001Z,25.06
2023-05-21T10:22:46.767Z,24.50
2023-05-21T10:25:13.772Z,25.16
2023-05-21T10:27:41.531Z,24.59
2023-05-21T10:30:08.730Z,25.22
2023-05-21T10:32:35.786Z,25.03
2023-05-21T10:35:02.815Z,25.13
2023-05-21T10:37:29.970Z,25.02
2023-05-21T10:39:57.258Z,24.64
2023-05-21T10:42:24.041Z,24.81
2023-05-21T10:45:03.864Z,24.81
2023-05-21T10:47:54.136Z,24.11
2023-05-21T10:50:30.034Z,24.68
2023-05-21T10:53:09.927Z,24.66
2023-05-21T10:55:58.512Z,24.64
2023-05-21T10:59:03.015Z,24.60
2023-05-21T11:01:34.148Z,24.77
2023-05-21T11:04:01.516Z,24.38
2023-05-21T11:06:28.715Z,24.38
2023-05-21T11:08:55.960Z,24.83
2023-05-21T11:11:42.671Z,25.05
2023-05-21T11:14:39.564Z,25.17
2023-05-21T11:17:06.822Z,24.88
2023-05-21T11:19:39.132Z,25.25
2023-05-21T11:22:22.120Z,25.24
2023-05-21T11:24:51.152Z,25.16
2023-05-21T11:27:37.852Z,25.75
2023-05-21T11:30:09.456Z,25.36
2023-05-21T11:32:41.025Z,25.61
2023-05-21T11:35:08.278Z,25.18
2023-05-21T11:37:35.822Z,25.38
2023-05-21T11:40:20.856Z,24.85
2023-05-21T11:42:52.814Z,25.25
2023-05-21T11:45:21.820Z,25.31
2023-05-21T11:47:49.670Z,25.46
2023-05-21T11:50:17.673Z,25.37
2023-05-21T11:52:45.553Z,25.76
2023-05-21T11:55:13.320Z,25.70
2023-05-21T11:57:42.840Z,25.78
2023-05-21T12:00:16.783Z,25.31
2023-05-21T12:02:50.340Z,25.03
2023-05-21T12:05:17.373Z,25.33
2023-05-21T12:07:48.890Z,25.63
2023-05-21T12:10:16.336Z,25.70
2023-05-21T12:12:53.981Z,25.51
2023-05-21T12:15:24.381Z,25.55
2023-05-21T12:17:53.219Z,25.67
2023-05-21T12:20:21.104Z,25.78
2023-05-21T12:22:51.313Z,25.75
2023-05-21T12:25:20.231Z,25.48
2023-05-21T12:27:49.794Z,25.84
2023-05-21T12:30:16.794Z,25.84
2023-05-21T12:32:46.606Z,25.41
2023-05-21T12:35:23.774Z,25.52
2023-05-21T12:37:51.171Z,25.44
2023-05-21T12:40:19.352Z,25.59
2023-05-21T12:42:46.253Z,25.98
2023-05-21T12:45:13.678Z,25.95
2023-05-21T12:47:40.645Z,25.72
2023-05-21T12:50:14.091Z,25.97
2023-05-21T12:52:43.109Z,25.61
2023-05-21T12:55:11.879Z,25.84
2023-05-21T12:57:39.238Z,26.04
2023-05-21T13:00:07.297Z,25.66
2023-05-21T13:02:35.636Z,25.41
2023-05-21T13:05:04.385Z,26.04
2023-05-21T13:07:38.933Z,25.93
2023-05-21T13:10:06.514Z,26.10
2023-05-21T13:12:34.023Z,25.62
2023-05-21T13:15:02.118Z,25.85
2023-05-21T13:17:29.311Z,25.64
2023-05-21T13:20:15.703Z,25.73
2023-05-21T13:22:43.555Z,26.05
2023-05-21T13:25:15.727Z,26.05
2023-05-21T13:27:43.350Z,26.25
2023-05-21T13:30:11.761Z,25.92
2023-05-21T13:32:39.855Z,26.12
2023-05-21T13:35:07.056Z,26.19
2023-05-21T13:37:36.254Z,25.92
2023-05-21T13:40:07.741Z,25.88
2023-05-21T13:42:35.618Z,26.33
2023-05-21T13:45:02.458Z,25.99
2023-05-21T13:47:29.351Z,26.02
2023-05-21T13:49:56.076Z,26.16
2023-05-21T13:52:23.064Z,25.95
2023-05-21T13:54:50.947Z,25.97
2023-05-21T13:57:17.874Z,25.94
2023-05-21T13:59:45.245Z,25.74
2023-05-21T14:02:12.259Z,25.80
2023-05-21T14:04:39.588Z,26.04
2023-05-21T14:07:07.282Z,25.73
2023-05-21T14:09:34.584Z,25.46
2023-05-21T14:12:01.644Z,25.88
2023-05-21T14:14:28.613Z,26.00
2023-05-21T14:16:55.598Z,25.62
2023-05-21T14:19:22.572Z,25.90
2023-05-21T14:21:52.249Z,25.67
2023-05-21T14:24:19.345Z,25.92
2023-05-21T14:26:46.329Z,25.90
2023-05-21T14:29:13.341Z,25.99
2023-05-21T14:31:40.186Z,25.83
2023-05-21T14:34:08.780Z,25.76
2023-05-21T14:36:36.453Z,25.64
2023-05-21T14:39:03.861Z,25.75
2023-05-21T14:41:30.794Z,25.98
2023-05-21T14:43:57.775Z,26.50
2023-05-21T14:46:24.528Z,26.44
2023-05-21T14:48:51.495Z,26.76
2023-05-21T14:51:19.566Z,26.42
2023-05-21T14:53:47.150Z,26.04
2023-05-21T14:56:22.244Z,25.70
2023-05-21T14:58:49.336Z,26.16
2023-05-21T15:01:16.356Z,26.04
2023-05-21T15:03:43.493Z,26.48
2023-05-21T15:06:13.565Z,26.48
2023-05-21T15:08:40.372Z,26.02
2023-05-21T15:11:09.850Z,26.39
2023-05-21T15:13:36.712Z,26.38
2023-05-21T15:16:03.918Z,26.26
2023-05-21T15:18:30.914Z,26.21
2023-05-21T15:20:58.677Z,26.16
2023-05-21T15:23:25.556Z,26.39
2023-05-21T15:25:58.197Z,26.53
2023-05-21T15:28:25.356Z,26.12
2023-05-21T15:30:52.197Z,26.30
2023-05-21T15:33:19.074Z,26.42
2023-05-21T15:35:45.974Z,26.37
2023-05-21T15:38:13.065Z,26.27
2023-05-21T15:40:43.121Z,26.43
2023-05-21T15:43:10.286Z,26.10
2023-05-21T15:45:38.418Z,26.11
2023-05-21T15:48:06.188Z,26.23
2023-05-21T15:50:35.447Z,25.77
2023-05-21T15:53:04.129Z,26.24
2023-05-21T15:55:34.081Z,26.21
2023-05-21T15:58:02.592Z,26.45
2023-05-21T16:00:30.205Z,26.41
2023-05-21T16:02:57.008Z,26.39
2023-05-21T16:05:23.909Z,26.42
2023-05-21T16:07:51.518Z,26.16
2023-05-21T16:10:18.280Z,26.34
2023-05-21T16:12:45.115Z,26.06
2023-05-21T16:15:11.973Z,26.20
2023-05-21T16:17:39.440Z,26.30
2023-05-21T16:20:07.298Z,26.43
2023-05-21T16:22:34.100Z,25.87
2023-05-21T16:25:00.861Z,26.11
2023-05-21T16:27:27.662Z,26.06
2023-05-21T16:29:54.429Z,25.66
2023-05-21T16:32:21.501Z,26.00
2023-05-21T16:34:48.651Z,26.09
2023-05-21T16:37:15.475Z,26.11
2023-05-21T16:39:42.346Z,25.99
2023-05-21T16:42:09.192Z,26.12
2023-05-21T16:44:37.887Z,26.10
2023-05-21T16:47:05.310Z,26.25
2023-05-21T16:49:32.034Z,26.26
2023-05-21T16:51:58.821Z,26.12
2023-05-21T16:54:26.789Z,26.33
2023-05-21T16:56:54.972Z,25.75
2023-05-21T16:59:21.799Z,26.09
2023-05-21T17:01:48.944Z,26.23
2023-05-21T17:04:15.769Z,26.31
2023-05-21T17:06:42.567Z,25.93
2023-05-21T17:09:09.506Z,25.95
2023-05-21T17:11:36.331Z,26.18
2023-05-21T17:14:03.064Z,26.11
2023-05-21T17:16:30.001Z,26.14
2023-05-21T17:18:57.556Z,26.29
2023-05-21T17:21:26.470Z,25.87
2023-05-21T17:23:53.372Z,26.16
2023-05-21T17:26:23.132Z,26.15
2023-05-21T17:28:49.965Z,26.02
2023-05-21T17:31:17.046Z,26.04
2023-05-21T17:33:43.858Z,26.04
2023-05-21T17:36:10.701Z,26.31
2023-05-21T17:38:37.434Z,25.86
2023-05-21T17:41:04.591Z,26.30
2023-05-21T17:43:32.083Z,26.24
2023-05-21T17:45:58.930Z,25.82
2023-05-21T17:48:26.265Z,26.09
2023-05-21T17:51:13.311Z,26.00
2023-05-21T17:53:41.204Z,25.87
2023-05-21T17:56:08.324Z,25.71
2023-05-21T17:58:35.273Z,25.64
2023-05-21T18:01:02.833Z,25.72
2023-05-21T18:03:33.748Z,25.63
2023-05-21T18:06:05.047Z,25.79
2023-05-21T18:08:32.001Z,25.81
2023-05-21T18:11:01.556Z,25.76
2023-05-21T18:13:31.651Z,25.81
2023-05-21T18:15:59.113Z,25.62
2023-05-21T18:18:25.986Z,25.87
2023-05-21T18:20:53.136Z,25.32
2023-05-21T18:23:20.502Z,25.32
2023-05-21T18:25:50.903Z,25.30
2023-05-21T18:28:18.004Z,25.42
2023-05-21T18:30:44.759Z,25.23
2023-05-21T18:33:12.639Z,25.38
2023-05-21T18:35:39.554Z,25.24
2023-05-21T18:38:09.989Z,25.11
2023-05-21T18:40:38.044Z,25.19
2023-05-21T18:43:06.505Z,24.95
2023-05-21T18:45:33.571Z,25.00
2023-05-21T18:48:04.464Z,25.10
2023-05-21T18:50:32.501Z,25.11
2023-05-21T18:52:59.504Z,24.94
2023-05-21T18:55:26.500Z,24.96
2023-05-21T18:57:53.318Z,24.91
2023-05-21T19:00:20.485Z,24.92
2023-05-21T19:02:47.599Z,24.55
2023-05-21T19:05:14.909Z,24.94
2023-05-21T19:07:42.048Z,25.09
2023-05-21T19:10:10.695Z,25.00
2023-05-21T19:12:37.786Z,25.03
2023-05-21T19:15:05.012Z,24.92
2023-05-21T19:17:33.884Z,25.09
2023-05-21T19:20:00.914Z,24.73
2023-05-21T19:28:20.798Z,24.85
2023-05-21T19:30:47.662Z,24.82
2023-05-21T19:33:14.812Z,24.70
2023-05-21T19:35:43.206Z,24.67
2023-05-21T19:38:10.932Z,24.65
2023-05-21T19:40:38.378Z,24.41
2023-05-21T19:43:06.665Z,24.63
2023-05-21T19:45:33.715Z,24.63
2023-05-21T19:48:00.647Z,24.30
2023-05-21T19:50:28.876Z,24.41
2023-05-21T19:52:57.232Z,24.44
2023-05-21T19:55:24.726Z,24.48
2023-05-21T19:57:51.732Z,24.44
2023-05-21T20:00:18.976Z,24.61
2023-05-21T20:02:46.362Z,24.63
2023-05-21T20:05:13.371Z,24.46
2023-05-21T20:07:41.446Z,24.47
2023-05-21T20:10:08.897Z,24.47
2023-05-21T20:12:35.987Z,24.30
2023-05-21T20:15:03.621Z,24.04
2023-05-21T20:17:30.822Z,24.14
2023-05-21T20:19:59.105Z,24.41
2023-05-21T20:22:26.009Z,24.18
2023-05-21T20:24:53.023Z,23.89
2023-05-21T20:27:20.077Z,24.30
2023-05-21T20:29:47.110Z,23.90
2023-05-21T20:32:13.872Z,24.18
2023-05-21T20:34:54.310Z,24.17
2023-05-21T20:37:28.467Z,24.01
2023-05-21T20:39:57.892Z,23.94
2023-05-21T20:42:28.768Z,23.71
2023-05-21T20:44:58.875Z,23.95
2023-05-21T20:47:30.154Z,24.05
2023-05-21T20:49:58.834Z,23.23
2023-05-21T20:52:26.832Z,23.65
2023-05-21T20:54:59.485Z,23.46
2023-05-21T20:57:27.397Z,23.48
2023-05-21T20:59:54.505Z,23.42
2023-05-21T21:02:21.766Z,23.27
2023-05-21T21:04:49.786Z,23.20
2023-05-21T21:07:20.581Z,23.14
2023-05-21T21:09:49.249Z,23.09
2023-05-21T21:12:26.170Z,23.17
2023-05-21T21:14:54.187Z,23.02
2023-05-21T21:17:21.266Z,22.94
2023-05-21T21:19:48.179Z,22.86
2023-05-21T21:22:16.272Z,23.09
2023-05-21T21:24:43.212Z,23.22
2023-05-21T21:27:10.083Z,23.18
2023-05-21T21:29:37.179Z,23.08
2023-05-21T21:32:07.701Z,22.77
2023-05-21T21:34:42.700Z,23.20
2023-05-21T21:37:16.471Z,22.94
2023-05-21T21:39:43.500Z,23.11
2023-05-21T21:42:10.286Z,22.99
2023-05-21T21:44:39.235Z,22.71
2023-05-21T21:47:06.297Z,22.86
2023-05-21T21:49:34.433Z,22.76
2023-05-21T21:52:01.485Z,22.74
2023-05-21T21:54:28.369Z,22.59
2023-05-21T21:56:58.327Z,22.72
2023-05-21T21:59:28.592Z,22.79
2023-05-21T22:02:00.237Z,22.36
2023-05-21T22:04:27.249Z,22.17
2023-05-21T22:06:54.114Z,22.53
2023-05-21T22:09:24.172Z,22.44
2023-05-21T22:11:55.072Z,22.33
2023-05-21T22:14:25.789Z,22.35
2023-05-21T22:16:55.664Z,22.50
2023-05-21T22:19:25.355Z,21.96
2023-05-21T22:22:10.172Z,21.39
2023-05-21T22:24:40.751Z,21.90
2023-05-21T22:27:09.912Z,22.03
2023-05-21T22:29:40.853Z,21.89
2023-05-21T22:32:14.268Z,21.54
2023-05-21T22:34:41.970Z,21.15
2023-05-21T22:37:08.986Z,21.43
2023-05-21T22:39:35.911Z,21.28
2023-05-21T22:42:03.219Z,21.64
2023-05-21T22:44:30.167Z,21.40
2023-05-21T22:47:00.959Z,21.64
2023-05-21T22:49:27.963Z,21.77
2023-05-21T22:51:54.669Z,21.47
2023-05-21T22:54:22.717Z,21.28
2023-05-21T22:56:49.902Z,21.19
2023-05-21T22:59:16.816Z,21.13
2023-05-21T23:01:43.742Z,21.22
2023-05-21T23:04:10.643Z,20.63
2023-05-21T23:06:37.417Z,21.13
2023-05-21T23:09:14.830Z,20.67
2023-05-21T23:11:41.657Z,20.61
2023-05-21T23:14:10.755Z,20.45
2023-05-21T23:16:37.938Z,20.53
2023-05-21T23:19:04.807Z,20.76
2023-05-21T23:21:31.874Z,20.52
2023-05-21T23:23:58.639Z,20.79
2023-05-21T23:26:25.717Z,20.55
2023-05-21T23:28:54.562Z,20.85
2023-05-21T23:31:24.682Z,21.02
2023-05-21T23:33:51.974Z,20.30
2023-05-21T23:36:19.279Z,20.09
2023-05-21T23:38:46.399Z,20.30
2023-05-21T23:41:13.823Z,19.99
2023-05-21T23:43:43.439Z,20.06
2023-05-21T23:46:11.285Z,19.69
2023-05-21T23:48:39.682Z,19.92
2023-05-21T23:51:06.552Z,19.97
2023-05-21T23:53:33.344Z,20.36
2023-05-21T23:56:00.197Z,19.88
2023-05-21T23:58:30.074Z,20.31
